Time;durP1;ratioP1;P1;durP2;ratioP2;P2;SDS_P1;SDS_P2;PMS_P1;PMS_P2;Temp;Humidity;BMP_temperature;BMP_pressure;BME280_temperature;BME280_humidity;BME280_pressure;Samples;Min_cycle;Max_cycle;Signal;HPM_P1;HPM_P2
2022/05/29 00:04:29;;;;;;;13.10;3.72;;;;;;;9.03;100.00;101544.94;10283006;28;20043;-68
2022/05/29 00:09:38;;;;;;;18.35;3.63;;;;;;;8.91;100.00;101543.13;10282424;28;20055;-68
2022/05/29 00:14:39;;;;;;;12.68;3.53;;;;;;;8.67;100.00;101521.81;10282487;28;20045;-68
2022/05/29 00:19:39;;;;;;;15.82;3.17;;;;;;;8.60;100.00;101532.03;10280979;28;20049;-68
2022/05/29 00:24:39;;;;;;;16.48;3.47;;;;;;;8.55;100.00;101531.84;10299183;28;20098;-69
2022/05/29 00:29:40;;;;;;;11.90;3.25;;;;;;;8.56;100.00;101530.81;10299916;28;20038;-68
2022/05/29 00:34:40;;;;;;;18.08;4.43;;;;;;;8.54;100.00;101540.31;10298820;28;20038;-69
2022/05/29 00:39:41;;;;;;;13.15;2.92;;;;;;;8.51;100.00;101511.41;10298315;28;20407;-68
2022/05/29 00:44:42;;;;;;;14.27;3.10;;;;;;;8.60;100.00;101521.06;10280220;28;20414;-69
2022/05/29 00:49:43;;;;;;;13.48;3.53;;;;;;;8.34;100.00;101477.34;10298223;28;20446;-69
2022/05/29 00:54:49;;;;;;;11.45;3.58;;;;;;;8.64;100.00;101505.81;10299139;28;20066;-68
2022/05/29 00:59:50;;;;;;;16.80;3.72;;;;;;;8.67;100.00;101488.88;10298052;28;20113;-68
2022/05/29 01:04:50;;;;;;;12.75;3.67;;;;;;;8.77;100.00;101495.78;10264240;28;20039;-69
2022/05/29 01:09:51;;;;;;;12.38;3.28;;;;;;;8.80;100.00;101485.16;10279389;28;20046;-69
2022/05/29 01:15:27;;;;;;;12.65;3.20;;;;;;;8.82;100.00;101485.75;10279044;28;20595;-69
2022/05/29 01:20:44;;;;;;;6.80;2.55;;;;;;;8.80;100.00;101471.41;10179549;28;20027;-67
2022/05/29 01:26:00;;;;;;;8.18;2.22;;;;;;;8.79;100.00;101474.41;10297555;28;20552;-68
2022/05/29 01:31:05;;;;;;;14.32;3.40;;;;;;;8.81;100.00;101466.78;10297151;28;20134;-68
2022/05/29 01:36:20;;;;;;;14.55;3.92;;;;;;;8.88;100.00;101462.88;10246814;28;20030;-69
2022/05/29 01:41:30;;;;;;;15.40;4.07;;;;;;;8.91;100.00;101455.25;10237720;29;20102;-69
2022/05/29 01:46:32;;;;;;;9.95;2.95;;;;;;;8.97;100.00;101465.31;10239961;28;20046;-69
2022/05/29 01:51:35;;;;;;;13.70;3.22;;;;;;;8.68;100.00;101408.22;10295439;28;20058;-68
2022/05/29 01:56:39;;;;;;;14.00;2.92;;;;;;;8.96;100.00;101450.75;10279466;28;20039;-68
2022/05/29 02:01:48;;;;;;;14.38;3.80;;;;;;;8.99;100.00;101431.09;10262850;28;20046;-68
2022/05/29 02:12:12;;;;;;;18.48;3.78;;;;;;;9.20;100.00;101454.50;10273240;28;20047;-68
2022/05/29 02:17:17;;;;;;;8.80;2.65;;;;;;;9.20;100.00;101438.00;10238902;29;20563;-69
2022/05/29 02:22:25;;;;;;;16.00;3.22;;;;;;;9.20;100.00;101438.00;10237956;29;20035;-69
2022/05/29 02:27:40;;;;;;;11.70;3.97;;;;;;;9.19;100.00;101430.00;10238341;29;20046;-69
2022/05/29 02:32:58;;;;;;;16.77;3.67;;;;;;;9.22;100.00;101419.38;10273665;28;20046;-69
2022/05/29 02:38:07;;;;;;;17.42;3.70;;;;;;;9.20;100.00;101428.91;10294026;28;20047;-68
2022/05/29 02:43:54;;;;;;;16.20;3.88;;;;;;;9.20;100.00;101421.53;10262286;28;20153;-68
2022/05/29 02:48:56;;;;;;;17.63;5.40;;;;;;;9.08;100.00;101417.88;10152688;28;20047;-71
2022/05/29 02:53:57;;;;;;;26.63;5.35;;;;;;;8.87;100.00;101417.28;10276844;28;20293;-70
2022/05/29 02:58:57;;;;;;;21.83;4.93;;;;;;;8.89;100.00;101428.88;10294039;28;20594;-70
2022/05/29 03:04:04;;;;;;;22.23;6.72;;;;;;;8.93;100.00;101414.69;10266507;28;20238;-70
2022/05/29 03:09:12;;;;;;;20.52;5.93;;;;;;;8.96;100.00;101415.06;10301591;28;20078;-71
2022/05/29 03:14:34;;;;;;;18.42;4.70;;;;;;;8.93;100.00;101418.28;10284286;28;20039;-71
2022/05/29 03:19:50;;;;;;;18.08;5.03;;;;;;;8.85;100.00;101405.69;10302503;28;20573;-71
2022/05/29 03:25:01;;;;;;;26.58;5.22;;;;;;;8.76;100.00;101398.00;10303035;28;20047;-71
2022/05/29 03:30:09;;;;;;;16.17;4.80;;;;;;;8.77;100.00;101405.16;10284403;28;20721;-71
2022/05/29 03:35:21;;;;;;;19.95;4.82;;;;;;;8.76;100.00;101398.00;10301755;28;20174;-70
2022/05/29 03:40:23;;;;;;;12.90;4.00;;;;;;;8.77;100.00;101396.94;10298249;28;20041;-70
2022/05/29 03:45:24;;;;;;;22.25;5.90;;;;;;;8.80;100.00;101404.69;10266096;28;20128;-71
2022/05/29 03:50:25;;;;;;;23.10;6.72;;;;;;;8.71;100.00;101401.44;10299681;28;20043;-71
2022/05/29 03:55:25;;;;;;;11.80;4.55;;;;;;;8.72;100.00;101391.28;10281168;28;20034;-71
2022/05/29 04:00:26;;;;;;;21.75;4.75;;;;;;;8.75;100.00;101397.16;10298560;28;20039;-70
2022/05/29 04:05:26;;;;;;;19.10;4.05;;;;;;;8.77;100.00;101400.50;10298079;28;20035;-71
2022/05/29 04:15:46;;;;;;;13.77;3.65;;;;;;;8.85;100.00;101380.16;10283106;28;20045;-68
2022/05/29 04:20:49;;;;;;;15.85;3.20;;;;;;;8.78;100.00;101377.47;10298431;28;20436;-70
2022/05/29 04:25:50;;;;;;;17.77;4.03;;;;;;;8.85;100.00;101375.50;10280043;28;20046;-71
2022/05/29 04:30:50;;;;;;;16.30;3.47;;;;;;;8.82;100.00;101366.88;10279863;28;20042;-72
2022/05/29 04:35:52;;;;;;;19.92;4.15;;;;;;;8.91;100.00;101373.75;10278591;28;20061;-70
2022/05/29 04:40:53;;;;;;;17.17;3.75;;;;;;;8.98;100.00;101381.88;10239542;28;20420;-71
2022/05/29 04:45:54;;;;;;;17.02;2.92;;;;;;;9.06;100.00;101381.56;10255127;29;20043;-69
2022/05/29 04:50:58;;;;;;;13.27;3.03;;;;;;;9.13;100.00;101375.97;10257065;29;20035;-70
2022/05/29 04:55:59;;;;;;;12.75;3.00;;;;;;;9.12;100.00;101368.81;10238966;29;20102;-70
2022/05/29 05:01:01;;;;;;;20.42;3.45;;;;;;;9.13;100.00;101371.31;10237989;28;20035;-70
2022/05/29 05:06:01;;;;;;;12.52;2.60;;;;;;;9.10;100.00;101377.28;10254752;29;20039;-70
2022/05/29 05:11:02;;;;;;;18.90;2.80;;;;;;;9.08;100.00;101377.50;10258913;28;20374;-70
2022/05/29 05:16:04;;;;;;;20.42;3.60;;;;;;;9.08;100.00;101383.00;10295316;28;20042;-70
2022/05/29 05:21:05;;;;;;;13.35;2.95;;;;;;;8.97;100.00;101372.81;10275398;28;20042;-71
2022/05/29 05:26:10;;;;;;;17.20;3.80;;;;;;;9.03;100.00;101382.00;10293935;28;20039;-70
2022/05/29 05:31:10;;;;;;;21.83;3.63;;;;;;;9.04;100.00;101372.72;10277817;28;20050;-70
2022/05/29 05:36:12;;;;;;;20.67;4.22;;;;;;;9.09;100.00;101376.47;10277268;28;20054;-71
2022/05/29 05:41:13;;;;;;;24.50;4.32;;;;;;;9.22;100.00;101377.31;10293395;28;20039;-70
2022/05/29 05:46:14;;;;;;;20.65;3.60;;;;;;;9.33;100.00;101370.22;10276696;28;20065;-71
2022/05/29 05:51:16;;;;;;;16.00;3.40;;;;;;;9.39;100.00;101370.09;10260347;28;20046;-70
2022/05/29 05:56:17;;;;;;;16.83;3.38;;;;;;;9.44;100.00;101372.13;10276597;28;20039;-70
2022/05/29 06:01:17;;;;;;;18.45;3.35;;;;;;;9.57;100.00;101376.59;10276144;28;20399;-70
2022/05/29 06:06:18;;;;;;;14.07;3.33;;;;;;;9.65;100.00;101373.50;10275954;28;20042;-69
2022/05/29 06:11:18;;;;;;;15.57;2.83;;;;;;;9.63;100.00;101364.66;10292997;28;20054;-69
2022/05/29 06:16:19;;;;;;;15.32;3.33;;;;;;;9.65;100.00;101381.75;10276322;28;20031;-69
2022/05/29 06:21:19;;;;;;;13.27;3.35;;;;;;;9.64;100.00;101385.59;10293151;28;20112;-70
2022/05/29 06:26:20;;;;;;;10.02;2.55;;;;;;;9.63;100.00;101392.16;10292798;28;20068;-69
2022/05/29 06:31:20;;;;;;;6.22;2.10;;;;;;;9.68;100.00;101384.03;10292191;28;20035;-70
2022/05/29 06:36:25;;;;;;;13.65;2.33;;;;;;;9.70;100.00;101377.22;10293208;28;20049;-67
2022/05/29 06:41:26;;;;;;;9.90;2.22;;;;;;;9.70;100.00;101379.97;10300719;28;20046;-70
2022/05/29 06:46:26;;;;;;;11.75;2.50;;;;;;;9.64;100.00;101380.09;10300873;28;20042;-70
2022/05/29 06:51:26;;;;;;;12.02;1.80;;;;;;;9.24;100.00;101320.22;10283573;28;20047;-70
2022/05/29 06:56:27;;;;;;;7.18;1.85;;;;;;;9.58;100.00;101394.78;10300958;28;20117;-68
2022/05/29 07:06:59;;;;;;;7.60;2.47;;;;;;;9.36;100.00;101400.78;10294158;28;20528;-69
2022/05/29 07:12:30;;;;;;;8.65;1.85;;;;;;;9.36;100.00;101398.03;10278937;28;20047;-68
2022/05/29 07:17:31;;;;;;;22.08;3.78;;;;;;;9.34;100.00;101391.09;10276700;28;20031;-71
2022/05/29 07:22:32;;;;;;;11.55;3.17;;;;;;;9.36;100.00;101398.03;10278602;28;20375;-71
2022/05/29 07:27:32;;;;;;;11.95;2.00;;;;;;;9.46;100.00;101403.81;10273456;28;20043;-71
2022/05/29 07:32:33;;;;;;;12.07;2.88;;;;;;;9.51;100.00;101400.38;10259257;28;20070;-71
2022/05/29 07:37:33;;;;;;;8.80;2.03;;;;;;;9.51;100.00;101411.38;10269875;28;20054;-67
2022/05/29 07:47:53;;;;;;;6.30;1.70;;;;;;;9.65;100.00;101410.09;10276172;28;20043;-70
2022/05/29 07:52:54;;;;;;;5.95;2.30;;;;;;;9.71;100.00;101411.06;10245614;28;20054;-71
2022/05/29 07:57:54;;;;;;;8.98;1.77;;;;;;;9.85;100.00;101429.03;10276387;28;20075;-69
2022/05/29 08:02:55;;;;;;;8.50;2.05;;;;;;;9.76;100.00;101421.38;10276070;28;20043;-72
2022/05/29 08:07:55;;;;;;;12.18;2.42;;;;;;;9.73;100.00;101414.41;10276269;28;20035;-71
2022/05/29 08:12:56;;;;;;;7.80;1.80;;;;;;;9.93;100.00;101413.25;10275451;28;20039;-70
2022/05/29 08:17:56;;;;;;;10.27;1.67;;;;;;;10.27;100.00;101409.72;10258145;28;20075;-72
2022/05/29 08:22:57;;;;;;;9.38;1.88;;;;;;;10.55;100.00;101399.91;10274960;28;20102;-71
2022/05/29 08:33:18;;;;;;;5.90;1.17;;;;;;;10.59;100.00;101401.09;10287081;28;20058;-70
2022/05/29 08:38:19;;;;;;;9.27;1.40;;;;;;;10.74;100.00;101408.00;10254337;29;20112;-71
2022/05/29 08:43:28;;;;;;;8.35;1.60;;;;;;;10.84;100.00;101417.31;10239166;29;20043;-70
2022/05/29 08:48:29;;;;;;;24.67;1.98;;;;;;;10.52;100.00;101405.88;10256585;29;20053;-70
2022/05/29 08:53:36;;;;;;;6.03;1.48;;;;;;;10.20;100.00;101427.41;10252769;28;20054;-69
2022/05/29 08:58:54;;;;;;;13.77;2.42;;;;;;;10.03;100.00;101413.53;10273922;28;20090;-70
2022/05/29 09:04:06;;;;;;;9.95;1.55;;;;;;;10.24;100.00;101401.91;10270667;28;20554;-71
2022/05/29 09:09:32;;;;;;;15.82;2.67;;;;;;;10.66;100.00;101406.47;10276538;28;20058;-71
2022/05/29 09:14:41;;;;;;;9.98;1.75;;;;;;;11.00;100.00;101401.97;10277287;28;20043;-70
2022/05/29 09:19:48;;;;;;;8.30;1.52;;;;;;;11.31;100.00;101369.50;10293061;28;20454;-70
2022/05/29 09:24:50;;;;;;;9.90;2.08;;;;;;;11.39;100.00;101388.38;10293795;28;20038;-69
2022/05/29 09:29:51;;;;;;;10.73;2.63;;;;;;;11.67;100.00;101379.22;10275417;28;20062;-70
2022/05/29 09:35:05;;;;;;;8.45;1.10;;;;;;;11.82;100.00;101384.16;10275177;28;20054;-70
2022/05/29 09:40:29;;;;;;;9.10;1.38;;;;;;;11.40;100.00;101390.03;10257954;28;20046;-70
2022/05/29 09:45:33;;;;;;;5.53;1.45;;;;;;;11.17;100.00;101403.94;10277939;28;20074;-72
2022/05/29 09:50:51;;;;;;;10.10;1.30;;;;;;;11.31;100.00;101391.53;10275286;28;20086;-72
2022/05/29 09:56:01;;;;;;;8.23;1.15;;;;;;;11.70;100.00;101387.00;10275443;28;20034;-69
2022/05/29 10:01:05;;;;;;;5.72;1.35;;;;;;;11.72;100.00;101378.50;10260721;28;20038;-68
2022/05/29 10:06:14;;;;;;;6.07;0.85;;;;;;;11.60;100.00;101383.25;10292415;28;20049;-68
2022/05/29 10:11:21;;;;;;;9.45;1.25;;;;;;;11.56;100.00;101393.09;10274928;28;20043;-70
2022/05/29 10:16:33;;;;;;;10.55;1.25;;;;;;;11.65;100.00;101370.34;10293393;28;20039;-68
2022/05/29 10:21:42;;;;;;;9.18;1.40;;;;;;;11.89;100.00;101373.84;10290497;28;20522;-69
2022/05/29 10:26:48;;;;;;;5.65;1.92;;;;;;;12.34;100.00;101382.25;10290190;28;20550;-69
2022/05/29 10:31:49;;;;;;;8.52;1.15;;;;;;;12.47;100.00;101366.16;10274766;28;20057;-67
2022/05/29 10:36:49;;;;;;;5.10;0.90;;;;;;;12.41;100.00;101364.41;10275459;28;20038;-67
2022/05/29 10:41:51;;;;;;;6.22;0.80;;;;;;;12.41;100.00;101316.63;10244860;28;20041;-68
2022/05/29 10:47:01;;;;;;;7.35;1.05;;;;;;;13.17;100.00;101362.84;10249707;28;20039;-71
2022/05/29 10:52:30;;;;;;;7.40;1.73;;;;;;;13.69;100.00;101348.47;10260328;28;20070;-70
2022/05/29 10:58:11;;;;;;;7.07;1.40;;;;;;;13.46;100.00;101358.78;10292582;28;20042;-70
2022/05/29 11:03:44;;;;;;;5.30;1.33;;;;;;;13.10;100.00;101368.56;10277977;28;20047;-69
2022/05/29 11:09:02;;;;;;;10.70;1.35;;;;;;;12.55;100.00;101375.94;10287118;28;20503;-70
2022/05/29 11:14:39;;;;;;;5.88;1.48;;;;;;;11.86;100.00;101354.16;10291672;28;20043;-70
2022/05/29 11:20:02;;;;;;;5.35;1.02;;;;;;;12.16;100.00;101356.59;10262996;28;20062;-70
2022/05/29 11:25:08;;;;;;;7.68;1.17;;;;;;;12.39;100.00;101351.94;10296983;28;20670;-69
2022/05/29 11:30:30;;;;;;;7.28;1.73;;;;;;;12.50;100.00;101354.56;10282827;28;20035;-69
2022/05/29 11:35:51;;;;;;;4.57;1.70;;;;;;;12.64;100.00;101355.03;10299711;28;20051;-69
2022/05/29 11:40:54;;;;;;;8.15;1.45;;;;;;;12.81;100.00;101348.63;10298149;28;20446;-69
2022/05/29 11:51:36;;;;;;;12.65;3.05;;;;;;;13.38;100.00;101336.28;10259173;29;20051;-68
2022/05/29 11:56:54;;;;;;;11.27;1.38;;;;;;;13.36;100.00;101333.78;10241815;29;20036;-68
2022/05/29 12:02:13;;;;;;;8.20;1.98;;;;;;;13.53;100.00;101328.13;10226141;29;20036;-69
2022/05/29 12:07:46;;;;;;;5.35;1.30;;;;;;;13.52;100.00;101326.47;10227835;29;20071;-68
2022/05/29 12:12:53;;;;;;;6.95;1.58;;;;;;;13.83;100.00;101305.41;10254141;28;20281;-68
2022/05/29 12:18:22;;;;;;;9.52;1.38;;;;;;;13.71;98.71;101296.47;10265005;28;20031;-68
2022/05/29 12:23:26;;;;;;;7.95;1.10;;;;;;;13.66;96.79;101308.34;10259523;28;20042;-68
2022/05/29 12:28:38;;;;;;;5.28;0.95;;;;;;;13.37;98.24;101312.47;10283644;28;20051;-67
2022/05/29 12:33:42;;;;;;;3.63;1.20;;;;;;;13.15;100.00;101315.28;10274943;28;20059;-68
2022/05/29 12:38:46;;;;;;;10.07;1.95;;;;;;;13.34;100.00;101319.38;10258061;28;20031;-67
2022/05/29 12:44:05;;;;;;;7.25;1.50;;;;;;;13.62;99.79;101303.56;10276566;28;20573;-68
2022/05/29 12:49:05;;;;;;;8.38;1.23;;;;;;;13.60;100.00;101320.47;10275177;28;20043;-67
2022/05/29 12:54:18;;;;;;;4.72;1.50;;;;;;;13.64;100.00;101309.66;10274542;28;20042;-67
2022/05/29 12:59:23;;;;;;;6.00;1.50;;;;;;;14.00;97.12;101305.25;10257796;28;20031;-67
2022/05/29 13:04:57;;;;;;;10.00;1.48;;;;;;;13.87;98.95;101316.75;10257786;28;20035;-67
2022/05/29 13:10:09;;;;;;;11.25;1.80;;;;;;;13.23;100.00;101323.94;10275010;28;20114;-68
2022/05/29 13:15:20;;;;;;;10.18;1.50;;;;;;;12.89;100.00;101334.34;10241017;28;20062;-67
2022/05/29 13:20:21;;;;;;;9.38;1.23;;;;;;;12.63;100.00;101331.28;10274020;28;20459;-67
2022/05/29 13:25:30;;;;;;;12.02;1.63;;;;;;;12.41;100.00;101324.91;10240783;28;20035;-68
2022/05/29 13:30:36;;;;;;;12.02;1.67;;;;;;;12.32;100.00;101335.56;10258671;28;20039;-67
2022/05/29 13:35:39;;;;;;;8.35;1.67;;;;;;;12.17;100.00;101322.38;10271811;28;20042;-67
2022/05/29 13:40:42;;;;;;;5.90;1.42;;;;;;;12.14;100.00;101322.06;10263144;28;20635;-67
2022/05/29 13:45:43;;;;;;;16.33;2.08;;;;;;;12.16;100.00;101331.75;10293314;28;20058;-70
2022/05/29 13:50:54;;;;;;;11.13;1.33;;;;;;;12.30;100.00;101329.47;10276328;28;20050;-68
2022/05/29 13:56:06;;;;;;;10.57;1.48;;;;;;;12.62;100.00;101326.84;10277357;28;20503;-69
2022/05/29 14:06:38;;;;;;;12.73;3.47;;;;;;;13.30;100.00;101323.75;10265936;28;20043;-69
2022/05/29 14:11:44;;;;;;;7.57;1.60;;;;;;;13.62;99.45;101309.09;10277029;28;20102;-68
2022/05/29 14:16:45;;;;;;;5.28;1.00;;;;;;;13.57;99.12;101311.84;10292344;28;20057;-68
2022/05/29 14:22:02;;;;;;;12.88;2.15;;;;;;;13.63;100.00;101319.91;10293881;28;20042;-69
2022/05/29 14:27:21;;;;;;;;;;;;;;;13.56;98.37;101304.63;10293088;28;20050;-66
2022/05/29 14:32:34;;;;;;;13.65;2.72;;;;;;;13.61;94.99;101293.63;10292952;28;19918;-66
2022/05/29 14:38:05;;;;;;;10.82;1.58;;;;;;;13.85;90.61;101292.13;10293084;28;20051;-67
2022/05/29 14:43:14;;;;;;;7.22;1.23;;;;;;;13.56;91.17;101293.56;10291970;28;20039;-66
2022/05/29 14:48:25;;;;;;;8.77;1.60;;;;;;;13.09;94.48;101306.94;10275522;28;20078;-67
2022/05/29 14:53:30;;;;;;;10.68;2.08;;;;;;;12.68;100.00;101331.34;10275625;28;20039;-68
2022/05/29 14:58:41;;;;;;;11.02;2.50;;;;;;;12.16;100.00;101336.44;10278549;28;20050;-67
2022/05/29 15:03:46;;;;;;;15.18;1.70;;;;;;;11.59;100.00;101337.44;10283281;28;20039;-70
2022/05/29 15:14:19;;;;;;;8.68;1.70;;;;;;;11.43;100.00;101328.91;10299130;28;20049;-67
2022/05/29 15:19:20;;;;;;;13.95;1.83;;;;;;;11.61;100.00;101329.75;10283648;28;20054;-67
2022/05/29 15:24:25;;;;;;;6.65;1.15;;;;;;;11.79;100.00;101329.50;10282865;28;20046;-68
2022/05/29 15:29:37;;;;;;;8.55;2.33;;;;;;;12.03;100.00;101315.53;10300062;28;20454;-67
2022/05/29 15:34:49;;;;;;;8.40;1.63;;;;;;;12.20;100.00;101316.34;10282583;28;20051;-66
2022/05/29 15:40:05;;;;;;;12.30;1.80;;;;;;;12.32;100.00;101308.78;10298728;28;20057;-68
2022/05/29 15:45:24;;;;;;;11.38;1.50;;;;;;;12.03;100.00;101315.53;10298440;28;20042;-66
2022/05/29 15:50:33;;;;;;;9.48;1.73;;;;;;;11.44;100.00;101335.25;10299759;28;20051;-68
2022/05/29 15:56:01;;;;;;;6.90;1.60;;;;;;;11.05;100.00;101338.66;10297504;28;20079;-67
2022/05/29 16:01:13;;;;;;;7.25;1.88;;;;;;;10.88;100.00;101333.13;10283161;28;20030;-67
2022/05/29 16:06:21;;;;;;;12.25;1.73;;;;;;;10.80;100.00;101324.41;10280877;28;20082;-67
2022/05/29 16:11:35;;;;;;;10.38;1.73;;;;;;;10.92;100.00;101305.94;10297538;28;20534;-67
2022/05/29 16:16:41;;;;;;;7.45;1.50;;;;;;;11.06;100.00;101307.31;10297121;28;20042;-68
2022/05/29 16:21:44;;;;;;;12.23;1.60;;;;;;;11.34;100.00;101310.25;10298392;28;20507;-68
2022/05/29 16:26:50;;;;;;;9.77;1.65;;;;;;;11.38;100.00;101301.25;10297706;28;20042;-68
2022/05/29 16:31:53;;;;;;;10.10;1.93;;;;;;;11.31;100.00;101297.81;10276235;28;20479;-68
2022/05/29 16:53:13;;;;;;;11.70;2.15;;;;;;;11.63;100.00;101297.25;10241764;29;20054;-66
2022/05/29 16:58:24;;;;;;;9.23;1.73;;;;;;;11.56;100.00;101288.31;10238909;29;20074;-68
2022/05/29 17:03:46;;;;;;;11.30;1.63;;;;;;;11.62;100.00;101296.41;10239420;29;20126;-68
2022/05/29 17:08:53;;;;;;;15.00;1.75;;;;;;;11.49;100.00;101281.03;10261984;28;20050;-67
2022/05/29 17:13:54;;;;;;;10.50;1.70;;;;;;;11.71;100.00;101291.31;10316506;28;20050;-67
2022/05/29 17:18:55;;;;;;;13.02;2.03;;;;;;;11.84;100.00;101288.19;10321989;28;20413;-68
2022/05/29 17:24:00;;;;;;;9.13;1.50;;;;;;;11.84;100.00;101284.59;10331839;28;20042;-67
2022/05/29 17:29:31;;;;;;;11.50;1.75;;;;;;;11.84;100.00;101285.44;10315317;28;20038;-67
2022/05/29 17:34:33;;;;;;;5.50;1.60;;;;;;;11.74;100.00;101277.03;10274465;28;20045;-66
2022/05/29 17:39:45;;;;;;;7.13;1.75;;;;;;;11.78;100.00;101264.41;10300356;28;20251;-67
2022/05/29 17:44:45;;;;;;;8.13;1.25;;;;;;;11.70;100.00;101268.41;10317512;28;20038;-67
2022/05/29 17:50:04;;;;;;;11.43;2.47;;;;;;;11.59;100.00;101277.59;10316775;28;20042;-67
2022/05/29 17:55:06;;;;;;;7.40;1.95;;;;;;;11.51;100.00;101284.38;10333992;28;20542;-68
2022/05/29 18:00:07;;;;;;;7.65;1.50;;;;;;;11.47;100.00;101291.50;10285512;28;20043;-67
2022/05/29 18:05:08;;;;;;;9.88;1.38;;;;;;;11.37;100.00;101296.81;10291455;28;20027;-68
2022/05/29 18:10:09;;;;;;;12.23;1.63;;;;;;;11.27;100.00;101293.88;10291725;28;20035;-68
2022/05/29 18:15:10;;;;;;;9.70;2.53;;;;;;;11.00;100.00;101280.72;10275547;28;20035;-67
2022/05/29 18:20:11;;;;;;;10.23;1.48;;;;;;;10.87;100.00;101287.38;10276058;28;20050;-68
2022/05/29 18:25:11;;;;;;;7.53;1.92;;;;;;;10.73;100.00;101274.13;10275620;28;20062;-67
2022/05/29 18:30:13;;;;;;;8.23;2.13;;;;;;;10.70;100.00;101298.31;10293070;28;20035;-68
2022/05/29 18:35:13;;;;;;;14.40;1.67;;;;;;;10.53;100.00;101289.19;10291636;28;20470;-67
2022/05/29 18:40:18;;;;;;;12.05;1.80;;;;;;;10.57;100.00;101290.38;10274728;28;20031;-67
2022/05/29 18:45:18;;;;;;;13.35;1.85;;;;;;;10.63;100.00;101303.16;10259014;28;20035;-67
2022/05/29 18:50:19;;;;;;;7.80;1.30;;;;;;;10.48;100.00;101294.59;10293204;28;20058;-67
2022/05/29 18:55:19;;;;;;;8.85;2.15;;;;;;;10.49;100.00;101297.09;10291964;28;20121;-68
2022/05/29 19:00:20;;;;;;;12.35;1.40;;;;;;;10.48;100.00;101303.69;10291072;28;20077;-66
2022/05/29 19:05:21;;;;;;;11.48;2.25;;;;;;;10.47;100.00;101295.66;10272597;28;20114;-66
2022/05/29 19:10:21;;;;;;;11.70;1.77;;;;;;;10.42;100.00;101299.16;10290138;28;20524;-67
2022/05/29 19:15:22;;;;;;;11.07;1.63;;;;;;;10.39;100.00;101294.09;10289968;28;20042;-66
2022/05/29 19:20:22;;;;;;;5.25;1.58;;;;;;;10.35;100.00;101292.94;10290840;28;20045;-66
2022/05/29 19:25:22;;;;;;;9.73;1.63;;;;;;;10.26;100.00;101297.94;10290356;28;20034;-69
2022/05/29 19:30:25;;;;;;;6.22;1.98;;;;;;;10.21;100.00;101295.09;10292144;28;20558;-67
2022/05/29 19:35:26;;;;;;;8.77;1.52;;;;;;;10.12;100.00;101291.03;10291585;28;20039;-68
2022/05/29 19:40:27;;;;;;;10.07;1.33;;;;;;;9.96;100.00;101275.25;10258018;28;20122;-67
2022/05/29 19:45:28;;;;;;;10.15;1.67;;;;;;;10.04;100.00;101299.63;10276320;28;20247;-68
2022/05/29 19:50:29;;;;;;;5.28;1.42;;;;;;;9.96;100.00;101300.81;10265428;28;20043;-67
2022/05/29 19:55:31;;;;;;;9.48;0.90;;;;;;;9.94;100.00;101305.72;10298017;28;20030;-66
2022/05/29 20:00:31;;;;;;;6.38;1.30;;;;;;;9.88;100.00;101295.69;10281062;28;20065;-67
2022/05/29 20:05:32;;;;;;;7.93;1.52;;;;;;;9.83;100.00;101293.66;10297461;28;20049;-67
2022/05/29 20:10:32;;;;;;;9.95;2.53;;;;;;;9.80;100.00;101294.16;10296228;28;20062;-67
2022/05/29 20:15:34;;;;;;;7.78;1.23;;;;;;;9.77;100.00;101293.78;10296471;28;20287;-66
2022/05/29 20:20:37;;;;;;;11.85;1.75;;;;;;;9.49;100.00;101256.84;10297539;28;20049;-67
2022/05/29 20:25:37;;;;;;;8.05;1.55;;;;;;;9.65;100.00;101291.03;10297354;28;20046;-66
2022/05/29 20:30:38;;;;;;;6.38;1.23;;;;;;;9.66;100.00;101295.47;10295943;28;20462;-67
2022/05/29 20:35:38;;;;;;;8.85;1.48;;;;;;;9.53;100.00;101287.44;10295353;28;20047;-68
2022/05/29 20:40:40;;;;;;;12.15;1.92;;;;;;;9.53;100.00;101295.66;10295978;28;20114;-67
2022/05/29 20:45:44;;;;;;;12.15;1.50;;;;;;;9.39;100.00;101295.91;10296728;28;20039;-67
2022/05/29 20:50:46;;;;;;;6.13;1.20;;;;;;;9.28;100.00;101296.69;10279788;28;20045;-67
2022/05/29 20:55:46;;;;;;;13.10;1.65;;;;;;;9.21;100.00;101296.81;10295306;28;20435;-67
2022/05/29 21:00:46;;;;;;;12.18;1.38;;;;;;;9.16;100.00;101298.63;10277996;28;20042;-67
2022/05/29 21:05:47;;;;;;;6.00;1.38;;;;;;;9.13;100.00;101293.56;10295977;28;20071;-67
2022/05/29 21:10:47;;;;;;;12.75;1.63;;;;;;;9.13;100.00;101299.91;10295230;28;20042;-67
2022/05/29 21:15:48;;;;;;;7.90;1.60;;;;;;;9.09;100.00;101293.19;10294457;28;20035;-68
2022/05/29 21:20:48;;;;;;;7.18;1.45;;;;;;;9.08;100.00;101289.63;10298769;28;20043;-67
2022/05/29 21:25:51;;;;;;;7.72;1.30;;;;;;;9.04;100.00;101293.91;10333161;28;20030;-64
2022/05/29 21:30:57;;;;;;;12.50;1.30;;;;;;;9.02;100.00;101282.31;10332967;28;20066;-67
2022/05/29 21:35:57;;;;;;;9.37;1.20;;;;;;;9.00;100.00;101284.44;10332362;28;20042;-68
2022/05/29 21:41:01;;;;;;;8.05;1.40;;;;;;;8.97;100.00;101284.06;10331704;28;20042;-66
2022/05/29 21:46:03;;;;;;;8.18;1.20;;;;;;;8.88;100.00;101269.84;10332920;28;20086;-66
2022/05/29 21:51:11;;;;;;;5.70;1.17;;;;;;;8.89;100.00;101271.53;10332233;28;20046;-67
2022/05/29 21:56:14;;;;;;;6.20;1.42;;;;;;;8.89;100.00;101275.13;10314089;28;20038;-67
2022/05/29 22:01:15;;;;;;;8.10;1.25;;;;;;;8.84;100.00;101282.38;10309293;28;20046;-66
2022/05/29 22:06:18;;;;;;;6.55;2.45;;;;;;;8.72;100.00;101281.47;10314083;28;20038;-66
2022/05/29 22:11:20;;;;;;;6.75;1.30;;;;;;;8.57;100.00;101279.16;10332072;28;20079;-66
2022/05/29 22:16:27;;;;;;;8.38;1.67;;;;;;;8.46;100.00;101278.03;10332158;28;20034;-67
2022/05/29 22:21:30;;;;;;;7.03;1.20;;;;;;;8.34;100.00;101266.94;10331975;28;20045;-67
2022/05/29 22:26:30;;;;;;;5.88;0.95;;;;;;;8.32;100.00;101277.31;10314701;28;20038;-66
2022/05/29 22:31:50;;;;;;;5.05;1.05;;;;;;;8.32;100.00;101293.75;10331146;28;20042;-67
2022/05/29 22:37:08;;;;;;;4.72;1.20;;;;;;;8.19;100.00;101294.75;10316206;28;20034;-67
2022/05/29 22:42:10;;;;;;;3.45;1.00;;;;;;;8.07;100.00;101291.09;10332921;28;20045;-68
2022/05/29 22:47:33;;;;;;;3.85;0.98;;;;;;;7.96;100.00;101286.34;10299736;28;20049;-69
2022/05/29 22:52:50;;;;;;;5.18;1.25;;;;;;;7.91;100.00;101292.53;10332514;28;20077;-70
2022/05/29 22:57:50;;;;;;;;;;;;;;;7.87;100.00;101289.41;10334053;28;20464;-70
2022/05/29 23:03:29;;;;;;;4.93;1.10;;;;;;;7.87;100.00;101274.84;10315611;28;20358;-70
2022/05/29 23:08:30;;;;;;;6.70;1.40;;;;;;;7.88;100.00;101277.38;10332482;28;20052;-69
2022/05/29 23:13:30;;;;;;;7.40;1.63;;;;;;;7.92;100.00;101276.91;10293496;28;20077;-69
2022/05/29 23:18:31;;;;;;;6.38;1.48;;;;;;;7.68;100.00;101235.63;10274639;28;20050;-70
2022/05/29 23:23:32;;;;;;;6.28;1.52;;;;;;;7.92;100.00;101272.28;10300306;28;20373;-70
2022/05/29 23:28:33;;;;;;;5.97;1.60;;;;;;;7.88;100.00;101258.19;10282486;28;20049;-70
2022/05/29 23:33:33;;;;;;;6.45;1.63;;;;;;;7.85;100.00;101255.91;10299736;28;20058;-70
2022/05/29 23:38:34;;;;;;;8.45;1.70;;;;;;;7.84;100.00;101258.88;10266134;28;20591;-70
2022/05/29 23:43:34;;;;;;;7.18;1.55;;;;;;;7.77;100.00;101266.31;10280921;28;20043;-71
2022/05/29 23:48:52;;;;;;;10.48;2.28;;;;;;;7.65;100.00;101261.59;10281638;28;20046;-70
2022/05/29 23:53:53;;;;;;;8.15;1.80;;;;;;;7.50;100.00;101263.81;10298010;28;20050;-69
2022/05/29 23:58:53;;;;;;;6.50;1.60;;;;;;;7.34;100.00;101262.50;10299225;28;20045;-70
